createdAt,value
2018-04-30T00:00:46.869Z,20.24
2018-04-30T00:01:46.865Z,20.23
2018-04-30T00:02:46.919Z,20.39
2018-04-30T00:03:46.771Z,20.23
2018-04-30T00:04:46.919Z,20.23
2018-04-30T00:05:46.912Z,20.39
2018-04-30T00:06:46.816Z,20.23
2018-04-30T00:07:46.901Z,20.22
2018-04-30T00:08:46.870Z,20.38
2018-04-30T00:09:46.762Z,20.23
2018-04-30T00:10:47.044Z,20.22
2018-04-30T00:11:46.772Z,20.39
2018-04-30T00:12:46.889Z,20.22
2018-04-30T00:13:46.971Z,20.21
2018-04-30T00:14:46.871Z,20.37
2018-04-30T00:15:46.826Z,20.21
2018-04-30T00:16:46.917Z,20.2
2018-04-30T00:17:46.690Z,20.37
2018-04-30T00:18:46.958Z,20.2
2018-04-30T00:19:46.886Z,20.19
2018-04-30T00:20:46.762Z,20.35
2018-04-30T00:21:46.760Z,20.21
2018-04-30T00:22:46.892Z,20.2
2018-04-30T00:23:46.790Z,20.35
2018-04-30T00:24:46.874Z,20.21
2018-04-30T00:25:46.964Z,20.2
2018-04-30T00:26:46.947Z,20.36
2018-04-30T00:27:46.695Z,20.21
2018-04-30T00:28:46.755Z,20.19
2018-04-30T00:29:46.950Z,20.35
2018-04-30T00:30:47.264Z,20.19
2018-04-30T00:31:46.719Z,20.19
2018-04-30T00:32:46.813Z,20.35
2018-04-30T00:33:47.006Z,20.2
2018-04-30T00:34:46.935Z,20.18
2018-04-30T00:35:46.884Z,20.35
2018-04-30T00:36:46.931Z,20.19
2018-04-30T00:37:46.950Z,20.18
2018-04-30T00:38:47.209Z,20.35
2018-04-30T00:39:46.855Z,20.18
2018-04-30T00:40:46.676Z,20.18
2018-04-30T00:41:46.779Z,20.35
2018-04-30T00:42:46.855Z,20.18
2018-04-30T00:43:46.775Z,20.18
2018-04-30T00:44:46.880Z,20.34
2018-04-30T00:45:47.025Z,20.17
2018-04-30T00:46:46.719Z,20.18
2018-04-30T00:47:46.773Z,20.34
2018-04-30T00:48:46.809Z,20.18
2018-04-30T00:49:46.755Z,20.18
2018-04-30T00:50:47.145Z,20.35
2018-04-30T00:51:46.862Z,20.17
2018-04-30T00:52:46.852Z,20.17
2018-04-30T00:53:46.727Z,20.33
2018-04-30T00:54:46.720Z,20.17
2018-04-30T00:55:46.830Z,20.17
2018-04-30T00:56:46.855Z,20.33
2018-04-30T00:57:47.035Z,20.17
2018-04-30T00:58:46.850Z,20.18
2018-04-30T00:59:46.697Z,20.34
2018-04-30T01:00:46.871Z,20.18
2018-04-30T01:01:46.824Z,20.17
2018-04-30T01:02:46.947Z,20.34
2018-04-30T01:03:46.927Z,20.18
2018-04-30T01:04:46.877Z,20.15
2018-04-30T01:05:46.936Z,20.32
2018-04-30T01:06:46.898Z,20.17
2018-04-30T01:07:47.113Z,20.16
2018-04-30T01:08:46.831Z,20.32
2018-04-30T01:09:46.907Z,20.14
2018-04-30T01:10:46.759Z,20.14
2018-04-30T01:11:46.723Z,20.32
2018-04-30T01:12:46.911Z,20.17
2018-04-30T01:13:46.800Z,20.14
2018-04-30T01:14:46.914Z,20.3
2018-04-30T01:15:46.925Z,20.13
2018-04-30T01:16:46.980Z,20.13
2018-04-30T01:17:46.739Z,20.3
2018-04-30T01:18:46.726Z,20.13
2018-04-30T01:19:47.298Z,20.14
2018-04-30T01:20:46.898Z,20.3
2018-04-30T01:21:46.968Z,20.15
2018-04-30T01:22:46.882Z,20.14
2018-04-30T01:23:47.177Z,20.3
2018-04-30T01:24:46.951Z,20.13
2018-04-30T01:25:47.108Z,20.13
2018-04-30T01:26:47.056Z,20.3
2018-04-30T01:27:47.047Z,20.13
2018-04-30T01:28:46.761Z,20.13
2018-04-30T01:29:47.101Z,20.3
2018-04-30T01:30:47.007Z,20.14
2018-04-30T01:31:46.816Z,20.12
2018-04-30T01:32:46.910Z,20.3
2018-04-30T01:33:46.905Z,20.13
2018-04-30T01:34:46.823Z,20.13
2018-04-30T01:35:47.153Z,20.29
2018-04-30T01:36:46.829Z,20.14
2018-04-30T01:37:46.864Z,20.14
2018-04-30T01:38:46.908Z,20.3
2018-04-30T01:39:46.702Z,20.15
2018-04-30T01:40:46.895Z,20.13
2018-04-30T01:41:46.849Z,20.3
2018-04-30T01:42:46.881Z,20.13
2018-04-30T01:43:46.617Z,20.12
2018-04-30T01:44:46.938Z,20.29
2018-04-30T01:45:46.979Z,20.12
2018-04-30T01:46:46.744Z,20.12
2018-04-30T01:47:46.812Z,20.28
2018-04-30T01:48:46.782Z,20.12
2018-04-30T01:49:46.949Z,20.12
2018-04-30T01:50:46.870Z,20.29
2018-04-30T01:51:47.134Z,20.13
2018-04-30T01:52:46.736Z,20.12
2018-04-30T01:53:46.712Z,20.28
2018-04-30T01:54:46.852Z,20.13
2018-04-30T01:55:46.806Z,20.12
2018-04-30T01:56:46.945Z,20.29
2018-04-30T01:57:46.802Z,20.12
2018-04-30T01:58:46.905Z,20.12
2018-04-30T01:59:46.774Z,20.28
2018-04-30T02:00:46.894Z,20.12
2018-04-30T02:01:46.784Z,20.11
2018-04-30T02:02:46.851Z,20.27
2018-04-30T02:03:47.042Z,20.12
2018-04-30T02:04:46.726Z,20.12
2018-04-30T02:05:46.963Z,20.29
2018-04-30T02:06:46.772Z,20.12
2018-04-30T02:07:47.016Z,20.1
2018-04-30T02:08:46.761Z,20.27
2018-04-30T02:09:46.892Z,20.12
2018-04-30T02:10:46.754Z,20.11
2018-04-30T02:11:46.836Z,20.26
2018-04-30T02:12:46.805Z,20.1
2018-04-30T02:13:46.772Z,20.09
2018-04-30T02:14:46.870Z,20.26
2018-04-30T02:15:46.832Z,20.11
2018-04-30T02:16:46.892Z,20.11
2018-04-30T02:17:46.925Z,20.26
2018-04-30T02:18:46.730Z,20.12
2018-04-30T02:19:46.742Z,20.1
2018-04-30T02:20:46.787Z,20.26
2018-04-30T02:21:46.966Z,20.1
2018-04-30T02:22:46.878Z,20.1
2018-04-30T02:23:46.837Z,20.27
2018-04-30T02:24:46.741Z,20.12
2018-04-30T02:25:46.966Z,20.1
2018-04-30T02:26:47.160Z,20.26
2018-04-30T02:27:46.690Z,20.11
2018-04-30T02:28:46.818Z,20.1
2018-04-30T02:29:47.037Z,20.26
2018-04-30T02:30:46.941Z,20.09
2018-04-30T02:31:46.748Z,20.08
2018-04-30T02:32:46.842Z,20.26
2018-04-30T02:33:46.689Z,20.09
2018-04-30T02:34:46.770Z,20.07
2018-04-30T02:35:46.924Z,20.24
2018-04-30T02:36:46.663Z,20.09
2018-04-30T02:37:46.872Z,20.08
2018-04-30T02:38:46.782Z,20.24
2018-04-30T02:39:46.802Z,20.07
2018-04-30T02:40:46.852Z,20.06
2018-04-30T02:41:46.865Z,20.23
2018-04-30T02:42:46.859Z,20.07
2018-04-30T02:43:46.844Z,20.06
2018-04-30T02:44:46.848Z,20.23
2018-04-30T02:45:46.776Z,20.07
2018-04-30T02:46:46.864Z,20.06
2018-04-30T02:47:46.871Z,20.24
2018-04-30T02:48:46.816Z,20.07
2018-04-30T02:49:46.768Z,20.06
2018-04-30T02:50:46.850Z,20.23
2018-04-30T02:51:47.014Z,20.07
2018-04-30T02:52:46.657Z,20.06
2018-04-30T02:53:46.740Z,20.23
2018-04-30T02:54:46.964Z,20.06
2018-04-30T02:55:47.157Z,20.06
2018-04-30T02:56:46.797Z,20.24
2018-04-30T02:57:46.777Z,20.08
2018-04-30T02:58:46.623Z,20.06
2018-04-30T02:59:46.833Z,20.24
2018-04-30T03:00:46.806Z,20.07
2018-04-30T03:01:46.842Z,20.07
2018-04-30T03:02:46.743Z,20.23
2018-04-30T03:03:46.672Z,20.06
2018-04-30T03:04:46.926Z,20.05
2018-04-30T03:05:46.844Z,20.22
2018-04-30T03:06:46.782Z,20.06
2018-04-30T03:07:46.835Z,20.04
2018-04-30T03:08:46.741Z,20.22
2018-04-30T03:09:47.427Z,20.06
2018-04-30T03:10:47.061Z,20.05
2018-04-30T03:11:46.908Z,20.22
2018-04-30T03:12:47.007Z,20.06
2018-04-30T03:13:46.888Z,20.04
2018-04-30T03:14:46.725Z,20.2
2018-04-30T03:15:46.908Z,20.05
2018-04-30T03:16:46.792Z,20.04
2018-04-30T03:17:46.919Z,20.22
2018-04-30T03:18:46.991Z,20.05
2018-04-30T03:19:46.765Z,20.04
2018-04-30T03:20:46.788Z,20.2
2018-04-30T03:21:46.902Z,20.04
2018-04-30T03:22:46.694Z,20.04
2018-04-30T03:23:46.667Z,20.2
2018-04-30T03:24:46.787Z,20.05
2018-04-30T03:25:46.982Z,20.04
2018-04-30T03:26:47.003Z,20.22
2018-04-30T03:27:46.769Z,20.05
2018-04-30T03:28:46.788Z,20.03
2018-04-30T03:29:46.815Z,20.19
2018-04-30T03:30:46.925Z,20.03
2018-04-30T03:31:46.862Z,20.02
2018-04-30T03:32:46.827Z,20.2
2018-04-30T03:33:46.702Z,20.05
2018-04-30T03:34:47.099Z,20.02
2018-04-30T03:35:46.864Z,20.19
2018-04-30T03:36:46.858Z,20.03
2018-04-30T03:37:46.895Z,20.02
2018-04-30T03:38:46.859Z,20.2
2018-04-30T03:39:46.765Z,20.03
2018-04-30T03:40:46.760Z,20.01
2018-04-30T03:41:46.652Z,20.19
2018-04-30T03:42:46.663Z,20.04
2018-04-30T03:43:46.839Z,20.02
2018-04-30T03:44:46.732Z,20.19
2018-04-30T03:45:46.656Z,20.03
2018-04-30T03:46:46.588Z,20.01
2018-04-30T03:47:46.827Z,20.19
2018-04-30T03:48:46.621Z,20.02
2018-04-30T03:49:47.766Z,20.02
2018-04-30T03:50:46.764Z,20.19
2018-04-30T03:51:46.727Z,20.03
2018-04-30T03:52:47.000Z,20.02
2018-04-30T03:53:47.162Z,20.18
2018-04-30T03:54:46.856Z,20.02
2018-04-30T03:55:46.842Z,20.01
2018-04-30T03:56:46.764Z,20.18
2018-04-30T03:57:46.685Z,20.03
2018-04-30T03:58:46.798Z,20.02
2018-04-30T03:59:47.059Z,20.2
2018-04-30T04:00:46.698Z,20.02
2018-04-30T04:01:46.922Z,20.01
2018-04-30T04:02:46.835Z,20.19
2018-04-30T04:03:46.647Z,20.02
2018-04-30T04:04:46.835Z,20.01
2018-04-30T04:05:46.754Z,20.18
2018-04-30T04:06:46.802Z,20.02
2018-04-30T04:07:46.811Z,20
2018-04-30T04:08:46.640Z,20.19
2018-04-30T04:09:47.017Z,20.01
2018-04-30T04:10:46.727Z,20
2018-04-30T04:11:46.821Z,20.18
2018-04-30T04:12:47.514Z,20.01
2018-04-30T04:13:46.619Z,20
2018-04-30T04:14:46.770Z,20.18
2018-04-30T04:15:46.897Z,20.02
2018-04-30T04:16:46.906Z,20
2018-04-30T04:17:46.979Z,20.18
2018-04-30T04:18:46.770Z,20.02
2018-04-30T04:19:46.996Z,20.02
2018-04-30T04:20:46.882Z,20.19
2018-04-30T04:21:46.715Z,20.02
2018-04-30T04:22:46.631Z,20.01
2018-04-30T04:23:46.700Z,20.18
2018-04-30T04:24:46.923Z,20.02
2018-04-30T04:25:46.725Z,20
2018-04-30T04:26:46.754Z,20.18
2018-04-30T04:27:46.804Z,20.02
2018-04-30T04:28:46.582Z,20.01
2018-04-30T04:29:46.752Z,20.18
2018-04-30T04:30:46.713Z,20.02
2018-04-30T04:31:46.869Z,20.01
2018-04-30T04:32:46.858Z,20.18
2018-04-30T04:33:46.807Z,20.02
2018-04-30T04:34:46.914Z,20
2018-04-30T04:35:46.769Z,20.17
2018-04-30T04:36:46.829Z,20.01
2018-04-30T04:37:46.824Z,20
2018-04-30T04:38:46.640Z,20.18
2018-04-30T04:39:46.635Z,20.01
2018-04-30T04:40:46.704Z,20
2018-04-30T04:41:47.571Z,20.18
2018-04-30T04:42:46.890Z,20.01
2018-04-30T04:43:46.652Z,20.01
2018-04-30T04:44:46.646Z,20.18
2018-04-30T04:45:46.849Z,20.02
2018-04-30T04:46:46.631Z,20.01
2018-04-30T04:47:46.776Z,20.19
2018-04-30T04:48:46.702Z,20.03
2018-04-30T04:49:46.835Z,20
2018-04-30T04:50:46.932Z,20.18
2018-04-30T04:51:46.675Z,20.01
2018-04-30T04:52:46.852Z,20
2018-04-30T04:53:46.847Z,20.18
2018-04-30T04:54:46.812Z,20.01
2018-04-30T04:55:46.759Z,20
2018-04-30T04:56:46.626Z,20.18
2018-04-30T04:57:46.851Z,20
2018-04-30T04:58:46.734Z,20
2018-04-30T04:59:46.699Z,20.17
2018-04-30T05:00:46.812Z,20.02
2018-04-30T05:01:46.886Z,20
2018-04-30T05:02:46.739Z,20.18
2018-04-30T05:03:46.800Z,20.01
2018-04-30T05:04:46.715Z,20
2018-04-30T05:05:46.770Z,20.18
2018-04-30T05:06:47.030Z,20.02
2018-04-30T05:07:46.710Z,20.01
2018-04-30T05:08:46.757Z,20.18
2018-04-30T05:09:46.882Z,20.01
2018-04-30T05:10:47.298Z,20
2018-04-30T05:11:46.835Z,20.18
2018-04-30T05:12:46.815Z,20.02
2018-04-30T05:13:46.696Z,20.02
2018-04-30T05:14:46.839Z,20.19
2018-04-30T05:15:46.994Z,20.01
2018-04-30T05:16:46.727Z,20.01
2018-04-30T05:17:46.842Z,20.18
2018-04-30T05:18:47.058Z,20.03
2018-04-30T05:19:46.965Z,20
2018-04-30T05:20:47.040Z,20.18
2018-04-30T05:21:46.833Z,20.03
2018-04-30T05:22:46.745Z,20.01
2018-04-30T05:23:47.057Z,20.18
2018-04-30T05:24:46.880Z,20.02
2018-04-30T05:25:46.848Z,20.02
2018-04-30T05:26:47.028Z,20.19
2018-04-30T05:27:46.726Z,20.03
2018-04-30T05:28:47.066Z,20.03
2018-04-30T05:29:46.869Z,20.2
2018-04-30T05:30:46.797Z,20.03
2018-04-30T05:31:46.799Z,20.03
2018-04-30T05:32:46.780Z,20.19
2018-04-30T05:33:47.903Z,20.04
2018-04-30T05:34:46.952Z,20.02
2018-04-30T05:35:46.869Z,20.18
2018-04-30T05:36:46.626Z,20.02
2018-04-30T05:37:47.000Z,20.02
2018-04-30T05:38:46.703Z,20.19
2018-04-30T05:39:46.677Z,20.04
2018-04-30T05:40:46.751Z,20.03
2018-04-30T05:41:46.665Z,20.18
2018-04-30T05:42:46.540Z,20.03
2018-04-30T05:43:46.861Z,20.03
2018-04-30T05:44:46.627Z,20.19
2018-04-30T05:45:46.744Z,20.04
2018-04-30T05:46:46.904Z,20.02
2018-04-30T05:47:46.621Z,20.19
2018-04-30T05:48:46.745Z,20.04
2018-04-30T05:49:46.783Z,20.02
2018-04-30T05:50:46.892Z,20.19
2018-04-30T05:51:46.806Z,20.03
2018-04-30T05:52:46.745Z,20.02
2018-04-30T05:53:46.793Z,20.18
2018-04-30T05:54:46.832Z,20.03
2018-04-30T05:55:46.770Z,20.02
2018-04-30T05:56:46.847Z,20.18
2018-04-30T05:57:46.802Z,20.06
2018-04-30T05:58:46.698Z,20.05
2018-04-30T05:59:46.637Z,20.21
2018-04-30T06:00:46.885Z,20.06
2018-04-30T06:01:46.756Z,20.05
2018-04-30T06:02:46.835Z,20.23
2018-04-30T06:03:46.951Z,20.05
2018-04-30T06:04:46.811Z,20.04
2018-04-30T06:05:46.780Z,20.22
2018-04-30T06:06:47.046Z,20.06
2018-04-30T06:07:46.809Z,20.02
2018-04-30T06:08:46.710Z,20.21
2018-04-30T06:09:46.909Z,20.04
2018-04-30T06:10:46.802Z,20.03
2018-04-30T06:11:46.992Z,20.21
2018-04-30T06:12:46.821Z,20.04
2018-04-30T06:13:46.655Z,20.02
2018-04-30T06:14:46.709Z,20.19
2018-04-30T06:15:46.755Z,20.03
2018-04-30T06:16:47.903Z,20.03
2018-04-30T06:17:46.559Z,20.2
2018-04-30T06:18:46.584Z,20.04
2018-04-30T06:19:47.053Z,20.04
2018-04-30T06:20:46.743Z,20.21
2018-04-30T06:21:47.872Z,20.05
2018-04-30T06:22:46.735Z,20.04
2018-04-30T06:23:46.738Z,20.2
2018-04-30T06:24:46.716Z,20.05
2018-04-30T06:25:46.815Z,20.03
2018-04-30T06:26:47.833Z,20.2
2018-04-30T06:27:46.763Z,20.05
2018-04-30T06:28:46.676Z,20.04
2018-04-30T06:29:46.731Z,20.2
2018-04-30T06:30:46.793Z,20.05
2018-04-30T06:31:47.857Z,20.04
2018-04-30T06:32:46.756Z,20.21
2018-04-30T06:33:47.048Z,20.05
2018-04-30T06:34:46.673Z,20.03
2018-04-30T06:35:47.255Z,20.2
2018-04-30T06:36:46.723Z,20.05
2018-04-30T06:37:46.715Z,20.04
2018-04-30T06:38:46.864Z,20.21
2018-04-30T06:39:46.700Z,20.03
2018-04-30T06:40:47.175Z,20.03
2018-04-30T06:41:46.643Z,20.2
2018-04-30T06:42:46.572Z,20.04
2018-04-30T06:43:46.906Z,20.04
2018-04-30T06:44:46.857Z,20.2
2018-04-30T06:45:46.608Z,20.05
2018-04-30T06:46:48.429Z,20.04
2018-04-30T06:47:46.821Z,20.21
2018-04-30T06:48:46.685Z,20.04
2018-04-30T06:49:46.641Z,20.04
2018-04-30T06:50:46.636Z,20.2
2018-04-30T06:51:47.078Z,20.04
2018-04-30T06:52:46.654Z,20.03
2018-04-30T06:53:46.763Z,20.2
2018-04-30T06:54:47.061Z,20.04
2018-04-30T06:55:46.731Z,20.04
2018-04-30T06:56:46.806Z,20.2
2018-04-30T06:57:46.822Z,20.03
2018-04-30T06:58:46.656Z,20.02
2018-04-30T06:59:46.832Z,20.2
2018-04-30T07:00:46.769Z,20.04
2018-04-30T07:01:46.768Z,20.02
2018-04-30T07:02:46.623Z,20.19
2018-04-30T07:03:46.707Z,20.03
2018-04-30T07:04:47.101Z,20.01
2018-04-30T07:05:46.805Z,20.18
2018-04-30T07:06:46.686Z,20.02
2018-04-30T07:07:46.693Z,20.02
2018-04-30T07:08:46.600Z,20.18
2018-04-30T07:09:46.650Z,20.03
2018-04-30T07:10:46.705Z,20.01
2018-04-30T07:11:46.808Z,20.19
2018-04-30T07:12:46.785Z,20.03
2018-04-30T07:13:47.100Z,20.01
2018-04-30T07:14:46.785Z,20.18
2018-04-30T07:15:46.849Z,20.02
2018-04-30T07:16:46.848Z,20.02
2018-04-30T07:17:47.150Z,20.19
2018-04-30T07:18:46.644Z,20.02
2018-04-30T07:19:46.680Z,20.01
2018-04-30T07:20:46.854Z,20.18
2018-04-30T07:21:46.642Z,20
2018-04-30T07:22:46.889Z,20
2018-04-30T07:23:46.846Z,20.18
2018-04-30T07:24:47.125Z,20.01
2018-04-30T07:25:47.138Z,20
2018-04-30T07:26:46.732Z,20.17
2018-04-30T07:27:47.009Z,20.01
2018-04-30T07:28:46.689Z,20
2018-04-30T07:29:46.814Z,20.18
2018-04-30T07:30:46.820Z,20.03
2018-04-30T07:31:46.606Z,20
2018-04-30T07:32:47.016Z,20.18
2018-04-30T07:33:46.613Z,20
2018-04-30T07:34:46.801Z,20
2018-04-30T07:35:46.669Z,20.17
2018-04-30T07:36:46.669Z,20
2018-04-30T07:37:46.821Z,20
2018-04-30T07:38:46.612Z,20.17
2018-04-30T07:39:46.648Z,20.02
2018-04-30T07:40:46.766Z,20
2018-04-30T07:41:46.735Z,20.18
2018-04-30T07:42:46.876Z,20
2018-04-30T07:43:46.779Z,19.99
2018-04-30T07:44:46.732Z,20.17
2018-04-30T07:45:46.699Z,20.01
2018-04-30T07:46:46.747Z,19.99
2018-04-30T07:47:46.675Z,20.16
2018-04-30T07:48:47.339Z,19.99
2018-04-30T07:49:46.539Z,19.98
2018-04-30T07:50:46.736Z,20.16
2018-04-30T07:51:46.741Z,19.99
2018-04-30T07:52:46.723Z,19.98
2018-04-30T07:53:46.812Z,20.17
2018-04-30T07:54:46.674Z,20
2018-04-30T07:55:46.706Z,19.98
2018-04-30T07:56:46.655Z,20.15
2018-04-30T07:57:46.777Z,20
2018-04-30T07:59:09.772Z,19.98
2018-04-30T07:59:47.091Z,20.16
2018-04-30T08:00:46.747Z,20
2018-04-30T08:01:46.556Z,19.99
2018-04-30T08:02:46.789Z,20.16
2018-04-30T08:03:46.641Z,19.99
2018-04-30T08:04:46.692Z,19.99
2018-04-30T08:05:46.896Z,20.15
2018-04-30T08:06:47.708Z,19.99
2018-04-30T08:07:46.648Z,19.98
2018-04-30T08:08:46.710Z,20.16
2018-04-30T08:09:46.658Z,19.99
2018-04-30T08:10:46.626Z,19.98
2018-04-30T08:11:46.766Z,20.16
2018-04-30T08:12:46.574Z,19.99
2018-04-30T08:13:46.813Z,19.98
2018-04-30T08:14:47.073Z,20.15
2018-04-30T08:15:46.614Z,19.98
2018-04-30T08:16:46.754Z,19.97
2018-04-30T08:17:47.014Z,20.15
2018-04-30T08:18:46.637Z,19.99
2018-04-30T08:19:46.772Z,19.98
2018-04-30T08:20:46.759Z,20.15
2018-04-30T08:21:47.224Z,19.99
2018-04-30T08:22:46.576Z,19.97
2018-04-30T08:23:46.491Z,20.14
2018-04-30T08:24:46.694Z,19.98
2018-04-30T08:25:46.941Z,19.97
2018-04-30T08:26:46.864Z,20.14
2018-04-30T08:27:46.792Z,19.98
2018-04-30T08:28:46.758Z,19.97
2018-04-30T08:29:46.665Z,20.15
2018-04-30T08:30:46.589Z,19.98
2018-04-30T08:31:46.795Z,19.97
2018-04-30T08:32:46.583Z,20.14
2018-04-30T08:33:46.661Z,19.97
2018-04-30T08:34:46.755Z,19.96
2018-04-30T08:35:46.781Z,20.15
2018-04-30T08:36:47.291Z,19.98
2018-04-30T08:37:46.722Z,19.96
2018-04-30T08:38:46.593Z,20.14
2018-04-30T08:39:46.603Z,19.97
2018-04-30T08:40:46.723Z,19.96
2018-04-30T08:41:47.062Z,20.14
2018-04-30T08:42:46.626Z,19.97
2018-04-30T08:43:46.618Z,19.95
2018-04-30T08:44:47.059Z,20.13
2018-04-30T08:45:47.112Z,19.97
2018-04-30T08:46:46.715Z,19.96
2018-04-30T08:47:47.000Z,20.14
2018-04-30T08:48:46.759Z,19.97
2018-04-30T08:49:46.611Z,19.95
2018-04-30T08:50:46.766Z,20.13
2018-04-30T08:51:46.972Z,19.97
2018-04-30T08:52:46.650Z,19.96
2018-04-30T08:53:46.783Z,20.13
2018-04-30T08:54:47.630Z,19.97
2018-04-30T08:55:46.717Z,19.96
2018-04-30T08:56:46.730Z,20.14
2018-04-30T08:57:46.798Z,19.98
2018-04-30T08:58:46.619Z,19.96
2018-04-30T08:59:46.734Z,20.14
2018-04-30T09:00:46.820Z,19.98
2018-04-30T09:01:46.729Z,19.95
2018-04-30T09:02:46.738Z,20.13
2018-04-30T09:03:46.638Z,20
2018-04-30T09:04:46.589Z,19.98
2018-04-30T09:05:46.729Z,20.18
2018-04-30T09:06:46.806Z,20.04
2018-04-30T09:07:46.768Z,20.04
2018-04-30T09:08:46.861Z,20.23
2018-04-30T09:09:47.277Z,20.06
2018-04-30T09:10:46.537Z,20.06
2018-04-30T09:11:47.055Z,20.22
2018-04-30T09:12:46.585Z,20.1
2018-04-30T09:13:51.597Z,20.2
2018-04-30T09:15:52.056Z,20.52
2018-04-30T09:16:31.189Z,20.58
2018-04-30T09:18:35.923Z,20.53
2018-04-30T09:21:33.345Z,20.55
2018-04-30T09:23:30.384Z,20.58
2018-04-30T09:24:30.439Z,20.55
2018-04-30T09:25:30.463Z,20.59
2018-04-30T09:26:30.397Z,20.58
2018-04-30T09:27:30.377Z,20.56
2018-04-30T09:28:30.437Z,20.52
2018-04-30T09:29:30.382Z,20.53
2018-04-30T09:32:06.197Z,20.59
2018-04-30T09:33:00.791Z,20.59
2018-04-30T09:34:00.575Z,20.59
2018-04-30T09:35:01.211Z,20.56
2018-04-30T09:36:00.675Z,20.53
2018-04-30T09:37:00.772Z,20.47
2018-04-30T09:37:49.695Z,20.43
2018-04-30T09:38:49.568Z,20.33
2018-04-30T09:39:49.808Z,20.38
2018-04-30T09:40:49.656Z,20.42
2018-04-30T09:41:49.753Z,20.41
2018-04-30T09:42:49.591Z,20.41
2018-04-30T09:46:42.356Z,20.59
2018-04-30T09:47:42.333Z,20.57
2018-04-30T09:48:26.928Z,20.57
2018-04-30T09:49:26.799Z,20.5
2018-04-30T09:50:26.848Z,20.48
2018-04-30T09:51:26.879Z,20.49
2018-04-30T09:52:26.840Z,20.54
2018-04-30T09:53:26.971Z,20.45
2018-04-30T09:54:26.956Z,20.36
2018-04-30T09:55:26.956Z,20.48
2018-04-30T09:55:44.070Z,20.47
2018-04-30T09:56:43.543Z,20.29
2018-04-30T09:57:44.538Z,20.22
2018-04-30T09:58:43.390Z,20.2
2018-04-30T09:59:43.519Z,20.35
2018-04-30T10:00:43.635Z,20.19
2018-04-30T10:01:43.422Z,20.17
2018-04-30T10:02:43.396Z,20.32
2018-04-30T10:03:43.541Z,20.19
2018-04-30T10:04:43.346Z,20.18
2018-04-30T10:05:43.367Z,20.34
2018-04-30T10:06:43.518Z,20.21
2018-04-30T10:07:43.390Z,20.21
2018-04-30T10:08:43.448Z,20.37
2018-04-30T10:09:43.487Z,20.25
2018-04-30T10:10:43.515Z,20.24
2018-04-30T10:11:43.376Z,20.41
2018-04-30T10:12:43.480Z,20.28
2018-04-30T10:13:43.538Z,20.27
2018-04-30T10:14:43.448Z,20.46
2018-04-30T10:15:43.426Z,20.3
2018-04-30T10:16:43.469Z,20.31
2018-04-30T10:17:43.882Z,20.48
2018-04-30T10:18:43.462Z,20.34
2018-04-30T10:19:43.554Z,20.32
2018-04-30T10:20:43.346Z,20.49
2018-04-30T10:21:43.527Z,20.36
2018-04-30T10:22:43.683Z,20.35
2018-04-30T10:23:44.297Z,20.51
2018-04-30T10:24:43.444Z,20.36
2018-04-30T10:25:43.481Z,20.36
2018-04-30T10:26:43.813Z,20.49
2018-04-30T10:27:43.476Z,20.35
2018-04-30T10:28:43.436Z,20.35
2018-04-30T10:29:43.470Z,20.52
2018-04-30T10:30:43.543Z,20.37
2018-04-30T10:31:43.932Z,20.35
2018-04-30T10:32:43.662Z,20.53
2018-04-30T10:33:43.422Z,20.4
2018-04-30T10:34:43.464Z,20.38
2018-04-30T10:35:43.528Z,20.54
2018-04-30T10:36:43.447Z,20.39
2018-04-30T10:37:44.018Z,20.37
2018-04-30T10:38:43.318Z,20.54
2018-04-30T10:39:43.442Z,20.41
2018-04-30T10:40:43.448Z,20.41
2018-04-30T10:41:43.498Z,20.58
2018-04-30T10:42:43.433Z,20.44
2018-04-30T10:43:43.936Z,20.41
2018-04-30T10:44:43.367Z,20.59
2018-04-30T10:45:43.697Z,20.44
2018-04-30T10:46:43.557Z,20.45
2018-04-30T10:47:43.466Z,20.61
2018-04-30T10:48:43.606Z,20.45
2018-04-30T10:49:43.917Z,20.43
2018-04-30T10:50:43.441Z,20.62
2018-04-30T10:51:44.294Z,20.46
2018-04-30T10:52:43.400Z,20.44
2018-04-30T10:53:43.503Z,20.61
2018-04-30T10:54:43.773Z,20.46
2018-04-30T10:55:43.429Z,20.46
2018-04-30T10:56:43.551Z,20.61
2018-04-30T10:57:43.611Z,20.47
2018-04-30T10:58:43.610Z,20.43
2018-04-30T10:59:43.550Z,20.61
2018-04-30T11:00:43.294Z,20.46
2018-04-30T11:01:43.383Z,20.55
2018-04-30T11:02:44.261Z,20.64
2018-04-30T11:03:43.413Z,20.45
2018-04-30T11:04:43.514Z,20.41
2018-04-30T11:05:43.332Z,20.59
2018-04-30T11:06:43.390Z,20.44
2018-04-30T11:07:43.414Z,20.42
2018-04-30T11:08:43.373Z,20.59
2018-04-30T11:09:43.320Z,20.43
2018-04-30T11:10:43.381Z,20.43
2018-04-30T11:11:43.328Z,20.59
2018-04-30T11:12:43.496Z,20.45
2018-04-30T11:13:43.339Z,20.42
2018-04-30T11:14:43.467Z,20.57
2018-04-30T11:15:43.441Z,20.43
2018-04-30T11:16:43.511Z,20.4
2018-04-30T11:17:43.522Z,20.56
2018-04-30T11:18:45.225Z,20.41
2018-04-30T11:19:43.358Z,20.41
2018-04-30T11:20:43.521Z,20.59
2018-04-30T11:21:43.393Z,20.43
2018-04-30T11:22:44.016Z,20.4
2018-04-30T11:23:43.540Z,20.57
2018-04-30T11:24:43.644Z,20.43
2018-04-30T11:25:43.333Z,20.41
2018-04-30T11:26:43.353Z,20.57
2018-04-30T11:27:44.152Z,20.41
2018-04-30T11:28:43.625Z,20.39
2018-04-30T11:29:43.418Z,20.58
2018-04-30T11:30:43.385Z,20.41
2018-04-30T11:31:43.439Z,20.38
2018-04-30T11:32:43.447Z,20.56
2018-04-30T11:33:43.437Z,20.41
2018-04-30T11:34:43.677Z,20.39
2018-04-30T11:35:43.553Z,20.57
2018-04-30T11:36:43.448Z,20.41
2018-04-30T11:37:43.624Z,20.39
2018-04-30T11:38:43.357Z,20.57
2018-04-30T11:39:45.740Z,20.41
2018-04-30T11:40:43.434Z,20.39
2018-04-30T11:41:43.431Z,20.56
2018-04-30T11:42:43.483Z,20.4
2018-04-30T11:43:43.416Z,20.37
2018-04-30T11:44:43.561Z,20.55
2018-04-30T11:45:43.580Z,20.39
2018-04-30T11:46:43.536Z,20.36
2018-04-30T11:47:43.488Z,20.55
2018-04-30T11:48:46.037Z,20.38
2018-04-30T11:49:43.623Z,20.36
2018-04-30T11:50:43.496Z,20.54
2018-04-30T11:51:43.501Z,20.36
2018-04-30T11:52:43.579Z,20.35
2018-04-30T11:53:43.491Z,20.52
2018-04-30T11:54:43.702Z,20.35
2018-04-30T11:55:43.682Z,20.35
2018-04-30T11:56:43.760Z,20.51
2018-04-30T11:57:45.614Z,20.35
2018-04-30T11:58:44.360Z,20.29
2018-04-30T11:59:43.630Z,20.47
2018-04-30T12:00:43.650Z,20.34
2018-04-30T12:01:43.660Z,20.33
2018-04-30T12:02:46.033Z,20.52
2018-04-30T12:03:43.545Z,20.35
2018-04-30T12:04:43.484Z,20.35
2018-04-30T12:05:43.435Z,20.52
2018-04-30T12:06:45.234Z,20.37
2018-04-30T12:07:43.505Z,20.37
2018-04-30T12:08:43.945Z,20.54
2018-04-30T12:09:43.535Z,20.41
2018-04-30T12:10:43.658Z,20.39
2018-04-30T12:11:43.525Z,20.57
2018-04-30T12:12:43.433Z,20.42
2018-04-30T12:13:43.563Z,20.41
2018-04-30T12:14:43.563Z,20.59
2018-04-30T12:15:44.932Z,20.44
2018-04-30T12:16:43.504Z,20.42
2018-04-30T12:17:43.710Z,20.61
2018-04-30T12:18:43.491Z,20.45
2018-04-30T12:19:43.716Z,20.43
2018-04-30T12:20:43.893Z,20.63
2018-04-30T12:21:43.622Z,20.46
2018-04-30T12:22:43.474Z,20.46
2018-04-30T12:23:43.715Z,20.61
2018-04-30T12:24:44.304Z,20.48
2018-04-30T12:25:43.600Z,20.46
2018-04-30T12:26:43.499Z,20.63
2018-04-30T12:27:44.449Z,20.47
2018-04-30T12:28:43.680Z,20.48
2018-04-30T12:29:44.478Z,20.6
2018-04-30T12:30:43.519Z,20.46
2018-04-30T12:31:45.546Z,20.46
2018-04-30T12:32:43.749Z,20.63
2018-04-30T12:33:44.379Z,20.47
2018-04-30T12:34:43.738Z,20.44
2018-04-30T12:35:43.776Z,20.6
2018-04-30T12:36:43.753Z,20.45
2018-04-30T12:37:43.787Z,20.44
2018-04-30T12:38:43.778Z,20.59
2018-04-30T12:39:43.777Z,20.44
2018-04-30T12:40:43.782Z,20.41
2018-04-30T12:41:43.740Z,20.54
2018-04-30T12:42:43.821Z,20.44
2018-04-30T12:43:44.025Z,20.46
2018-04-30T12:44:43.696Z,20.62
2018-04-30T12:45:43.457Z,20.47
2018-04-30T12:46:43.579Z,20.47
2018-04-30T12:47:43.726Z,20.65
2018-04-30T12:48:43.437Z,20.49
2018-04-30T12:49:44.454Z,20.44
2018-04-30T12:50:44.227Z,20.65
2018-04-30T12:51:43.842Z,20.52
2018-04-30T12:52:43.721Z,20.51
2018-04-30T12:53:44.607Z,20.69
2018-04-30T12:54:45.556Z,20.53
2018-04-30T12:55:43.729Z,20.53
2018-04-30T12:56:43.720Z,20.7
2018-04-30T12:57:43.538Z,20.57
2018-04-30T12:58:44.621Z,20.79
2018-04-30T12:59:44.224Z,20.86
2018-04-30T13:00:46.591Z,20.68
2018-04-30T13:01:44.215Z,20.66
2018-04-30T13:02:44.285Z,20.84
2018-04-30T13:03:45.255Z,20.65
2018-04-30T13:04:44.373Z,20.63
2018-04-30T13:05:43.663Z,20.81